FIN9CF EHAM-EFKT
Flight info
| Callsign | FIN9CF |
|---|---|
| Flight time | N/A |
| Altitude | 33000 |
| Route | ANDIK N873 KEKIX Z708 AGISU DCT DOROR DCT RERPA DCT AMSEV DCT NEDZA DCT LULIL DCT IXUMA DCT INREX DCT ARPIV DCT OSLAV DCT LUKIG DCT UNKAS DCT BESLA DCT ASKEB DCT PERKE DCT EVIMI |
| Aircraft | A321/M-SDE3FGHIRWY/LB1 |
Departure
| Time | N/A |
|---|---|
| Airport | Amsterdam Airport Schiphol (EHAM) |
Arrival
| Time | 2026-04-21 21:19 |
|---|---|
| Airport | Kittilä International Airport (EFKT) |
| Time | Latitude | Longitude | Altitude | Speed | Heading |
|---|---|---|---|---|---|
| 2026-04-21 20:33 | 65.16308 | 20.86678 | 33143 ft | 396 kts | 36° |
| 2026-04-21 20:33 | 65.18414 | 20.90904 | 33130 ft | 396 kts | 36° |
| 2026-04-21 20:34 | 65.22626 | 20.99382 | 33113 ft | 396 kts | 36° |
| 2026-04-21 20:34 | 65.26828 | 21.07879 | 33110 ft | 396 kts | 36° |
| 2026-04-21 20:35 | 65.31020 | 21.16395 | 33100 ft | 396 kts | 36° |
| 2026-04-21 20:35 | 65.35123 | 21.24762 | 33098 ft | 396 kts | 36° |
| 2026-04-21 20:36 | 65.39321 | 21.33350 | 33103 ft | 396 kts | 36° |
| 2026-04-21 20:36 | 65.43524 | 21.41982 | 33096 ft | 398 kts | 36° |
| 2026-04-21 20:37 | 65.47731 | 21.50675 | 33069 ft | 399 kts | 36° |
| 2026-04-21 20:37 | 65.51946 | 21.59415 | 33041 ft | 400 kts | 36° |
| 2026-04-21 20:38 | 65.56125 | 21.68135 | 33052 ft | 401 kts | 36° |
| 2026-04-21 20:38 | 65.60338 | 21.76955 | 33045 ft | 401 kts | 36° |
| 2026-04-21 20:39 | 65.64546 | 21.85802 | 33041 ft | 401 kts | 36° |
| 2026-04-21 20:39 | 65.68753 | 21.94693 | 33048 ft | 401 kts | 36° |
| 2026-04-21 20:40 | 65.72285 | 22.02183 | 33150 ft | 400 kts | 36° |
| 2026-04-21 20:40 | 65.75055 | 22.08080 | 33027 ft | 398 kts | 36° |
| 2026-04-21 20:40 | 65.77133 | 22.12520 | 33021 ft | 397 kts | 36° |
| 2026-04-21 20:41 | 65.80616 | 22.19963 | 33018 ft | 398 kts | 36° |
| 2026-04-21 20:41 | 65.84776 | 22.28891 | 33024 ft | 399 kts | 36° |
| 2026-04-21 20:42 | 65.89187 | 22.36944 | 33031 ft | 395 kts | 30° |
| 2026-04-21 20:42 | 65.93685 | 22.44732 | 33065 ft | 396 kts | 30° |
| 2026-04-21 20:43 | 65.98178 | 22.52542 | 33063 ft | 396 kts | 30° |
| 2026-04-21 20:43 | 66.02655 | 22.60381 | 33052 ft | 395 kts | 30° |
| 2026-04-21 20:44 | 66.07120 | 22.68243 | 33048 ft | 395 kts | 30° |
| 2026-04-21 20:44 | 66.11578 | 22.76128 | 33048 ft | 395 kts | 30° |
| 2026-04-21 20:45 | 66.15805 | 22.83613 | 33039 ft | 394 kts | 30° |
| 2026-04-21 20:45 | 66.20259 | 22.91558 | 33038 ft | 394 kts | 30° |
| 2026-04-21 20:46 | 66.24706 | 22.99513 | 33024 ft | 393 kts | 30° |
| 2026-04-21 20:46 | 66.29139 | 23.07459 | 33013 ft | 394 kts | 30° |
| 2026-04-21 20:47 | 66.31362 | 23.11466 | 32743 ft | 394 kts | 30° |
| 2026-04-21 20:47 | 66.33578 | 23.15468 | 32467 ft | 394 kts | 30° |
| 2026-04-21 20:47 | 66.35793 | 23.19479 | 32216 ft | 394 kts | 30° |
| 2026-04-21 20:47 | 66.38011 | 23.23512 | 31950 ft | 395 kts | 30° |
| 2026-04-21 20:48 | 66.40202 | 23.27506 | 31707 ft | 395 kts | 30° |
| 2026-04-21 20:48 | 66.42427 | 23.31560 | 31452 ft | 395 kts | 30° |
| 2026-04-21 20:48 | 66.44386 | 23.35127 | 31026 ft | 397 kts | 30° |
| 2026-04-21 20:48 | 66.46684 | 23.39313 | 30114 ft | 403 kts | 30° |
| 2026-04-21 20:49 | 66.48955 | 23.43465 | 29138 ft | 406 kts | 30° |
| 2026-04-21 20:49 | 66.51237 | 23.47655 | 28257 ft | 407 kts | 30° |
| 2026-04-21 20:49 | 66.53533 | 23.51879 | 27266 ft | 411 kts | 30° |
| 2026-04-21 20:49 | 66.55846 | 23.56146 | 26307 ft | 415 kts | 30° |
| 2026-04-21 20:50 | 66.58176 | 23.60460 | 25458 ft | 417 kts | 30° |
| 2026-04-21 20:50 | 66.60497 | 23.64780 | 24845 ft | 412 kts | 30° |
| 2026-04-21 20:50 | 66.62792 | 23.69065 | 24180 ft | 410 kts | 30° |
| 2026-04-21 20:50 | 66.65075 | 23.73333 | 23517 ft | 408 kts | 30° |
| 2026-04-21 20:51 | 66.67351 | 23.77592 | 22785 ft | 405 kts | 30° |
| 2026-04-21 20:51 | 66.69598 | 23.81823 | 22153 ft | 401 kts | 30° |
| 2026-04-21 20:51 | 66.71818 | 23.86017 | 21516 ft | 397 kts | 30° |
| 2026-04-21 20:51 | 66.74026 | 23.90184 | 20901 ft | 395 kts | 30° |
| 2026-04-21 20:52 | 66.76217 | 23.94366 | 20251 ft | 393 kts | 30° |
| 2026-04-21 20:52 | 66.78384 | 23.98556 | 19640 ft | 392 kts | 30° |
| 2026-04-21 20:52 | 66.80547 | 24.02762 | 19029 ft | 391 kts | 31° |
| 2026-04-21 20:52 | 66.82698 | 24.06963 | 18432 ft | 390 kts | 31° |
| 2026-04-21 20:53 | 66.84851 | 24.11173 | 17787 ft | 390 kts | 31° |
| 2026-04-21 20:53 | 66.86993 | 24.15370 | 17229 ft | 388 kts | 31° |
| 2026-04-21 20:53 | 66.88931 | 24.19178 | 16729 ft | 385 kts | 31° |
| 2026-04-21 20:53 | 66.91095 | 24.23427 | 16165 ft | 381 kts | 31° |
| 2026-04-21 20:54 | 66.93182 | 24.27535 | 15637 ft | 377 kts | 31° |
| 2026-04-21 20:54 | 66.95248 | 24.31614 | 15113 ft | 374 kts | 31° |
| 2026-04-21 20:54 | 66.97296 | 24.35668 | 14581 ft | 371 kts | 31° |
| 2026-04-21 20:54 | 66.99327 | 24.39699 | 14056 ft | 368 kts | 31° |
| 2026-04-21 20:55 | 67.01335 | 24.43695 | 13473 ft | 366 kts | 31° |
| 2026-04-21 20:55 | 67.03331 | 24.47674 | 12914 ft | 361 kts | 31° |
| 2026-04-21 20:55 | 67.05305 | 24.51611 | 12342 ft | 357 kts | 31° |
| 2026-04-21 20:55 | 67.07256 | 24.55508 | 11801 ft | 354 kts | 31° |
| 2026-04-21 20:56 | 67.09190 | 24.59374 | 11238 ft | 351 kts | 31° |
| 2026-04-21 20:56 | 67.11084 | 24.63179 | 10950 ft | 339 kts | 32° |
| 2026-04-21 20:56 | 67.12873 | 24.66813 | 10824 ft | 325 kts | 31° |
| 2026-04-21 20:56 | 67.14607 | 24.70345 | 10705 ft | 311 kts | 31° |
| 2026-04-21 20:57 | 67.16273 | 24.73731 | 10575 ft | 299 kts | 31° |
| 2026-04-21 20:57 | 67.17876 | 24.76977 | 10449 ft | 287 kts | 30° |
| 2026-04-21 20:57 | 67.19442 | 24.80159 | 10204 ft | 281 kts | 30° |
| 2026-04-21 20:57 | 67.20946 | 24.83208 | 9929 ft | 276 kts | 30° |
| 2026-04-21 20:58 | 67.22443 | 24.86242 | 9916 ft | 273 kts | 30° |
| 2026-04-21 20:58 | 67.23959 | 24.89229 | 9920 ft | 271 kts | 25° |
| 2026-04-21 20:58 | 67.25623 | 24.91310 | 9921 ft | 263 kts | 11° |
| 2026-04-21 20:58 | 67.27414 | 24.92221 | 9418 ft | 262 kts | 357° |
| 2026-04-21 20:59 | 67.29242 | 24.92505 | 9123 ft | 257 kts | 358° |
| 2026-04-21 20:59 | 67.30993 | 24.92825 | 8742 ft | 255 kts | 358° |
| 2026-04-21 20:59 | 67.32761 | 24.93164 | 8381 ft | 254 kts | 359° |
| 2026-04-21 20:59 | 67.34519 | 24.93509 | 8022 ft | 253 kts | 359° |
| 2026-04-21 21:00 | 67.36265 | 24.93855 | 7648 ft | 251 kts | 359° |
| 2026-04-21 21:00 | 67.37998 | 24.94205 | 7273 ft | 248 kts | 359° |
| 2026-04-21 21:00 | 67.39710 | 24.94546 | 6752 ft | 247 kts | 359° |
| 2026-04-21 21:00 | 67.41426 | 24.94875 | 6384 ft | 246 kts | 359° |
| 2026-04-21 21:01 | 67.43124 | 24.95202 | 5919 ft | 244 kts | 359° |
| 2026-04-21 21:01 | 67.44833 | 24.95524 | 5296 ft | 244 kts | 359° |
| 2026-04-21 21:01 | 67.46515 | 24.95843 | 4794 ft | 243 kts | 359° |
| 2026-04-21 21:01 | 67.48210 | 24.96158 | 4312 ft | 245 kts | 358° |
| 2026-04-21 21:02 | 67.49872 | 24.96480 | 4173 ft | 234 kts | 358° |
| 2026-04-21 21:02 | 67.51455 | 24.96635 | 4003 ft | 221 kts | 349° |
| 2026-04-21 21:02 | 67.52908 | 24.95818 | 3865 ft | 209 kts | 342° |
| 2026-04-21 21:02 | 67.54285 | 24.94929 | 3723 ft | 198 kts | 342° |
| 2026-04-21 21:03 | 67.55572 | 24.94122 | 3636 ft | 184 kts | 342° |
| 2026-04-21 21:03 | 67.56780 | 24.93348 | 3506 ft | 172 kts | 341° |
| 2026-04-21 21:03 | 67.57881 | 24.92624 | 3248 ft | 155 kts | 340° |
| 2026-04-21 21:03 | 67.58880 | 24.91962 | 3004 ft | 144 kts | 339° |
| 2026-04-21 21:04 | 67.59847 | 24.91340 | 2804 ft | 142 kts | 340° |
| 2026-04-21 21:04 | 67.60804 | 24.90742 | 2540 ft | 141 kts | 339° |
| 2026-04-21 21:04 | 67.61749 | 24.90123 | 2362 ft | 140 kts | 338° |
| 2026-04-21 21:04 | 67.62689 | 24.89494 | 2160 ft | 138 kts | 338° |
| 2026-04-21 21:05 | 67.63627 | 24.88899 | 1978 ft | 139 kts | 340° |
| 2026-04-21 21:05 | 67.64568 | 24.88331 | 1769 ft | 138 kts | 338° |
| 2026-04-21 21:05 | 67.65501 | 24.87689 | 1484 ft | 141 kts | 340° |
| 2026-04-21 21:05 | 67.66441 | 24.86994 | 1274 ft | 139 kts | 339° |
| 2026-04-21 21:06 | 67.67381 | 24.86435 | 1046 ft | 137 kts | 340° |
| 2026-04-21 21:06 | 67.68306 | 24.85842 | 865 ft | 137 kts | 339° |
| 2026-04-21 21:06 | 67.69240 | 24.85233 | 679 ft | 138 kts | 341° |
| 2026-04-21 21:06 | 67.70085 | 24.84678 | 641 ft | 113 kts | 343° |
| 2026-04-21 21:07 | 67.70966 | 24.84095 | 680 ft | 155 kts | 348° |
| 2026-04-21 21:07 | 67.72001 | 24.83352 | 1602 ft | 152 kts | 338° |
| 2026-04-21 21:07 | 67.72958 | 24.82679 | 2670 ft | 133 kts | 339° |
| 2026-04-21 21:07 | 67.73868 | 24.82147 | 3215 ft | 138 kts | 340° |
| 2026-04-21 21:08 | 67.74825 | 24.81553 | 3681 ft | 147 kts | 340° |
| 2026-04-21 21:08 | 67.75821 | 24.80600 | 4041 ft | 161 kts | 326° |
| 2026-04-21 21:08 | 67.76603 | 24.78266 | 4173 ft | 183 kts | 300° |
| 2026-04-21 21:08 | 67.76861 | 24.74894 | 4210 ft | 194 kts | 278° |
| 2026-04-21 21:09 | 67.76622 | 24.71288 | 4117 ft | 203 kts | 264° |
| 2026-04-21 21:09 | 67.76137 | 24.67764 | 4082 ft | 209 kts | 253° |
| 2026-04-21 21:09 | 67.75218 | 24.64621 | 4108 ft | 227 kts | 231° |
| 2026-04-21 21:09 | 67.73792 | 24.62583 | 4168 ft | 240 kts | 205° |
| 2026-04-21 21:10 | 67.72048 | 24.61917 | 4213 ft | 257 kts | 189° |
| 2026-04-21 21:10 | 67.70240 | 24.61927 | 4234 ft | 261 kts | 185° |
| 2026-04-21 21:10 | 67.68428 | 24.62084 | 4208 ft | 259 kts | 182° |
| 2026-04-21 21:10 | 67.66631 | 24.62737 | 4032 ft | 261 kts | 172° |
| 2026-04-21 21:11 | 67.64876 | 24.63871 | 3906 ft | 259 kts | 170° |
| 2026-04-21 21:11 | 67.63167 | 24.65053 | 3865 ft | 248 kts | 168° |
| 2026-04-21 21:11 | 67.61556 | 24.66280 | 3889 ft | 233 kts | 168° |
| 2026-04-21 21:11 | 67.60038 | 24.67406 | 3911 ft | 227 kts | 171° |
| 2026-04-21 21:12 | 67.58492 | 24.68456 | 3923 ft | 232 kts | 170° |
| 2026-04-21 21:12 | 67.56948 | 24.69572 | 3973 ft | 233 kts | 169° |
| 2026-04-21 21:12 | 67.55386 | 24.70751 | 4010 ft | 233 kts | 168° |
| 2026-04-21 21:12 | 67.53912 | 24.71920 | 3933 ft | 220 kts | 168° |
| 2026-04-21 21:13 | 67.52475 | 24.73114 | 3671 ft | 224 kts | 164° |
| 2026-04-21 21:13 | 67.51122 | 24.75231 | 3608 ft | 232 kts | 130° |
| 2026-04-21 21:13 | 67.50470 | 24.78890 | 3488 ft | 217 kts | 89° |
| 2026-04-21 21:13 | 67.50562 | 24.82674 | 3456 ft | 207 kts | 70° |
| 2026-04-21 21:14 | 67.50788 | 24.86378 | 3506 ft | 206 kts | 68° |
| 2026-04-21 21:14 | 67.51286 | 24.89725 | 3587 ft | 190 kts | 43° |
| 2026-04-21 21:14 | 67.52152 | 24.92158 | 3620 ft | 178 kts | 28° |
| 2026-04-21 21:14 | 67.53161 | 24.93860 | 3615 ft | 167 kts | 11° |
| 2026-04-21 21:15 | 67.54250 | 24.94504 | 3503 ft | 158 kts | 354° |
| 2026-04-21 21:15 | 67.55274 | 24.94289 | 3337 ft | 140 kts | 341° |
| 2026-04-21 21:15 | 67.56199 | 24.93674 | 3024 ft | 136 kts | 340° |
| 2026-04-21 21:15 | 67.57075 | 24.93156 | 2838 ft | 122 kts | 340° |
| 2026-04-21 21:16 | 67.57997 | 24.92574 | 2693 ft | 138 kts | 339° |
| 2026-04-21 21:16 | 67.58856 | 24.92016 | 2703 ft | 114 kts | 338° |
| 2026-04-21 21:16 | 67.59584 | 24.91550 | 2486 ft | 105 kts | 338° |
| 2026-04-21 21:16 | 67.60362 | 24.91020 | 2377 ft | 123 kts | 338° |
| 2026-04-21 21:17 | 67.61195 | 24.90490 | 2332 ft | 123 kts | 338° |
| 2026-04-21 21:17 | 67.62049 | 24.89944 | 2289 ft | 128 kts | 338° |
| 2026-04-21 21:17 | 67.62937 | 24.89348 | 2124 ft | 135 kts | 338° |
| 2026-04-21 21:17 | 67.63855 | 24.88761 | 1979 ft | 137 kts | 339° |
| 2026-04-21 21:18 | 67.64782 | 24.88169 | 1705 ft | 137 kts | 337° |
| 2026-04-21 21:18 | 67.65714 | 24.87512 | 1447 ft | 140 kts | 339° |
| 2026-04-21 21:18 | 67.66657 | 24.86870 | 1211 ft | 139 kts | 343° |
| 2026-04-21 21:18 | 67.67603 | 24.86361 | 1000 ft | 137 kts | 338° |
| 2026-04-21 21:19 | 67.68522 | 24.85706 | 796 ft | 138 kts | 341° |
| 2026-04-21 21:19 | 67.69451 | 24.85107 | 660 ft | 132 kts | 342° |
| 2026-04-21 21:19 | 67.70226 | 24.84604 | 638 ft | 86 kts | 346° |
| 2026-04-21 21:19 | 67.70601 | 24.84366 | 645 ft | 17 kts | 347° |
| 2026-04-21 21:20 | 67.70709 | 24.84374 | 641 ft | 16 kts | 36° |
| 2026-04-21 21:20 | 67.70743 | 24.84628 | 641 ft | 17 kts | 81° |
| 2026-04-21 21:20 | 67.70705 | 24.84786 | 638 ft | 11 kts | 163° |
| 2026-04-21 21:20 | 67.70623 | 24.84835 | 639 ft | 13 kts | 168° |
| 2026-04-21 21:21 | 67.70532 | 24.84891 | 641 ft | 14 kts | 167° |
| 2026-04-21 21:21 | 67.70432 | 24.84953 | 637 ft | 15 kts | 167° |
| 2026-04-21 21:21 | 67.70323 | 24.85023 | 637 ft | 16 kts | 166° |
| 2026-04-21 21:21 | 67.70219 | 24.85086 | 640 ft | 13 kts | 167° |
| 2026-04-21 21:22 | 67.70177 | 24.85112 | 639 ft | 8 kts | 167° |
| 2026-04-21 21:22 | 67.70117 | 24.85148 | 643 ft | 8 kts | 167° |
| 2026-04-21 21:22 | 67.70102 | 24.85158 | 639 ft | 0 kts | 166° |
| 2026-04-21 21:24 | 67.70098 | 24.85160 | 639 ft | 1 kts | 166° |
| 2026-04-21 21:24 | 67.70090 | 24.85165 | 642 ft | 0 kts | 166° |
| 2026-04-21 21:25 | 67.70088 | 24.85167 | 640 ft | 1 kts | 166° |
| 2026-04-21 21:25 | 67.70077 | 24.85173 | 640 ft | 2 kts | 166° |
| 2026-04-21 21:26 | 67.70049 | 24.85192 | 645 ft | 7 kts | 166° |
| 2026-04-21 21:26 | 67.69995 | 24.85226 | 640 ft | 10 kts | 167° |
| 2026-04-21 21:26 | 67.69918 | 24.85273 | 642 ft | 12 kts | 166° |
| 2026-04-21 21:26 | 67.69837 | 24.85324 | 642 ft | 13 kts | 166° |
| 2026-04-21 21:27 | 67.69750 | 24.85376 | 642 ft | 13 kts | 167° |
| 2026-04-21 21:27 | 67.69652 | 24.85433 | 642 ft | 15 kts | 167° |
| 2026-04-21 21:27 | 67.69572 | 24.85519 | 643 ft | 11 kts | 119° |
| 2026-04-21 21:27 | 67.69553 | 24.85656 | 643 ft | 3 kts | 128° |
| 2026-04-21 21:28 | 67.69543 | 24.85686 | 639 ft | 0 kts | 130° |